sensor_id;sensor_type;location;lat;lon;timestamp;P1;durP1;ratioP1;P2;durP2;ratioP2
48823;SDS011;34640;53.590;10.054;2023-11-19T00:02:29;11.98;;;6.07;;
48823;SDS011;34640;53.590;10.054;2023-11-19T00:05:03;12.55;;;6.93;;
48823;SDS011;34640;53.590;10.054;2023-11-19T00:07:38;11.50;;;6.35;;
48823;SDS011;34640;53.590;10.054;2023-11-19T00:10:15;10.05;;;5.68;;
48823;SDS011;34640;53.590;10.054;2023-11-19T00:12:50;12.15;;;6.65;;
48823;SDS011;34640;53.590;10.054;2023-11-19T00:15:23;11.00;;;6.43;;
48823;SDS011;34640;53.590;10.054;2023-11-19T00:17:56;10.82;;;5.88;;
48823;SDS011;34640;53.590;10.054;2023-11-19T00:20:32;12.85;;;6.25;;
48823;SDS011;34640;53.590;10.054;2023-11-19T00:23:05;11.27;;;5.80;;
48823;SDS011;34640;53.590;10.054;2023-11-19T00:25:40;10.45;;;5.80;;
48823;SDS011;34640;53.590;10.054;2023-11-19T00:28:13;10.40;;;5.05;;
48823;SDS011;34640;53.590;10.054;2023-11-19T00:30:46;8.68;;;5.25;;
48823;SDS011;34640;53.590;10.054;2023-11-19T00:33:19;10.13;;;5.15;;
48823;SDS011;34640;53.590;10.054;2023-11-19T00:35:51;7.63;;;4.65;;
48823;SDS011;34640;53.590;10.054;2023-11-19T00:38:24;7.82;;;4.57;;
48823;SDS011;34640;53.590;10.054;2023-11-19T00:40:58;8.15;;;4.60;;
48823;SDS011;34640;53.590;10.054;2023-11-19T00:43:31;7.18;;;4.75;;
48823;SDS011;34640;53.590;10.054;2023-11-19T00:46:06;5.75;;;3.50;;
48823;SDS011;34640;53.590;10.054;2023-11-19T00:48:42;5.57;;;3.38;;
48823;SDS011;34640;53.590;10.054;2023-11-19T00:51:15;7.78;;;3.80;;
48823;SDS011;34640;53.590;10.054;2023-11-19T00:53:48;5.03;;;3.58;;
48823;SDS011;34640;53.590;10.054;2023-11-19T00:56:22;6.55;;;3.53;;
48823;SDS011;34640;53.590;10.054;2023-11-19T00:58:55;5.43;;;3.25;;
48823;SDS011;34640;53.590;10.054;2023-11-19T01:01:28;5.50;;;3.58;;
48823;SDS011;34640;53.590;10.054;2023-11-19T01:04:01;4.93;;;2.88;;
48823;SDS011;34640;53.590;10.054;2023-11-19T01:06:34;9.23;;;3.50;;
48823;SDS011;34640;53.590;10.054;2023-11-19T01:09:07;6.03;;;3.53;;
48823;SDS011;34640;53.590;10.054;2023-11-19T01:11:42;4.90;;;3.38;;
48823;SDS011;34640;53.590;10.054;2023-11-19T01:14:16;5.65;;;3.10;;
48823;SDS011;34640;53.590;10.054;2023-11-19T01:16:49;6.18;;;3.25;;
48823;SDS011;34640;53.590;10.054;2023-11-19T01:19:22;4.18;;;2.80;;
48823;SDS011;34640;53.590;10.054;2023-11-19T01:21:55;4.90;;;2.90;;
48823;SDS011;34640;53.590;10.054;2023-11-19T01:24:30;5.03;;;2.60;;
48823;SDS011;34640;53.590;10.054;2023-11-19T01:27:04;4.90;;;2.60;;
48823;SDS011;34640;53.590;10.054;2023-11-19T01:29:37;4.55;;;2.53;;
48823;SDS011;34640;53.590;10.054;2023-11-19T01:32:11;4.05;;;2.63;;
48823;SDS011;34640;53.590;10.054;2023-11-19T01:34:44;4.47;;;2.60;;
48823;SDS011;34640;53.590;10.054;2023-11-19T01:37:17;3.40;;;2.03;;
48823;SDS011;34640;53.590;10.054;2023-11-19T01:39:50;3.63;;;2.15;;
48823;SDS011;34640;53.590;10.054;2023-11-19T01:42:27;3.42;;;2.10;;
48823;SDS011;34640;53.590;10.054;2023-11-19T01:45:00;3.47;;;2.30;;
48823;SDS011;34640;53.590;10.054;2023-11-19T01:47:34;3.35;;;2.15;;
48823;SDS011;34640;53.590;10.054;2023-11-19T01:50:08;1.92;;;1.70;;
48823;SDS011;34640;53.590;10.054;2023-11-19T01:52:41;3.25;;;2.28;;
48823;SDS011;34640;53.590;10.054;2023-11-19T01:55:14;3.20;;;2.03;;
48823;SDS011;34640;53.590;10.054;2023-11-19T01:57:49;3.25;;;2.25;;
48823;SDS011;34640;53.590;10.054;2023-11-19T02:00:23;2.60;;;1.92;;
48823;SDS011;34640;53.590;10.054;2023-11-19T02:02:56;4.05;;;2.00;;
48823;SDS011;34640;53.590;10.054;2023-11-19T02:05:29;2.58;;;1.75;;
48823;SDS011;34640;53.590;10.054;2023-11-19T02:08:03;2.55;;;1.80;;
48823;SDS011;34640;53.590;10.054;2023-11-19T02:10:36;2.40;;;1.63;;
48823;SDS011;34640;53.590;10.054;2023-11-19T02:13:11;4.53;;;1.65;;
48823;SDS011;34640;53.590;10.054;2023-11-19T02:15:45;2.15;;;1.70;;
48823;SDS011;34640;53.590;10.054;2023-11-19T02:18:21;3.13;;;1.40;;
48823;SDS011;34640;53.590;10.054;2023-11-19T02:20:55;2.65;;;1.60;;
48823;SDS011;34640;53.590;10.054;2023-11-19T02:23:28;5.22;;;1.67;;
48823;SDS011;34640;53.590;10.054;2023-11-19T02:26:05;2.10;;;1.52;;
48823;SDS011;34640;53.590;10.054;2023-11-19T02:28:46;2.10;;;1.45;;
48823;SDS011;34640;53.590;10.054;2023-11-19T02:31:19;3.42;;;1.77;;
48823;SDS011;34640;53.590;10.054;2023-11-19T02:33:54;2.55;;;1.50;;
48823;SDS011;34640;53.590;10.054;2023-11-19T02:36:27;2.25;;;1.55;;
48823;SDS011;34640;53.590;10.054;2023-11-19T02:39:01;2.40;;;1.60;;
48823;SDS011;34640;53.590;10.054;2023-11-19T02:41:35;2.80;;;1.45;;
48823;SDS011;34640;53.590;10.054;2023-11-19T02:44:09;2.83;;;1.40;;
48823;SDS011;34640;53.590;10.054;2023-11-19T02:46:43;1.58;;;1.30;;
48823;SDS011;34640;53.590;10.054;2023-11-19T02:49:15;1.40;;;1.02;;
48823;SDS011;34640;53.590;10.054;2023-11-19T02:51:48;2.35;;;1.27;;
48823;SDS011;34640;53.590;10.054;2023-11-19T02:54:21;1.83;;;1.30;;
48823;SDS011;34640;53.590;10.054;2023-11-19T02:56:58;1.90;;;1.17;;
48823;SDS011;34640;53.590;10.054;2023-11-19T02:59:35;2.92;;;1.38;;
48823;SDS011;34640;53.590;10.054;2023-11-19T03:02:12;1.73;;;1.38;;
48823;SDS011;34640;53.590;10.054;2023-11-19T03:04:47;3.53;;;1.80;;
48823;SDS011;34640;53.590;10.054;2023-11-19T03:07:20;2.00;;;1.30;;
48823;SDS011;34640;53.590;10.054;2023-11-19T03:09:53;2.10;;;1.50;;
48823;SDS011;34640;53.590;10.054;2023-11-19T03:12:26;1.85;;;1.27;;
48823;SDS011;34640;53.590;10.054;2023-11-19T03:15:00;2.00;;;1.10;;
48823;SDS011;34640;53.590;10.054;2023-11-19T03:17:33;1.52;;;1.20;;
48823;SDS011;34640;53.590;10.054;2023-11-19T03:20:07;1.70;;;1.33;;
48823;SDS011;34640;53.590;10.054;2023-11-19T03:22:42;1.63;;;1.35;;
48823;SDS011;34640;53.590;10.054;2023-11-19T03:25:15;1.90;;;1.20;;
48823;SDS011;34640;53.590;10.054;2023-11-19T03:27:49;1.73;;;1.13;;
48823;SDS011;34640;53.590;10.054;2023-11-19T03:30:24;2.20;;;1.23;;
48823;SDS011;34640;53.590;10.054;2023-11-19T03:33:02;1.75;;;1.38;;
48823;SDS011;34640;53.590;10.054;2023-11-19T03:35:36;2.28;;;1.60;;
48823;SDS011;34640;53.590;10.054;2023-11-19T03:38:09;3.55;;;1.40;;
48823;SDS011;34640;53.590;10.054;2023-11-19T03:40:41;3.13;;;1.50;;
48823;SDS011;34640;53.590;10.054;2023-11-19T03:43:14;1.67;;;1.20;;
48823;SDS011;34640;53.590;10.054;2023-11-19T03:45:49;3.00;;;1.52;;
48823;SDS011;34640;53.590;10.054;2023-11-19T03:48:23;1.98;;;1.45;;
48823;SDS011;34640;53.590;10.054;2023-11-19T03:50:55;2.08;;;1.55;;
48823;SDS011;34640;53.590;10.054;2023-11-19T03:53:28;2.55;;;1.50;;
48823;SDS011;34640;53.590;10.054;2023-11-19T03:56:03;2.17;;;1.50;;
48823;SDS011;34640;53.590;10.054;2023-11-19T03:58:36;2.55;;;1.70;;
48823;SDS011;34640;53.590;10.054;2023-11-19T04:01:12;2.10;;;1.70;;
48823;SDS011;34640;53.590;10.054;2023-11-19T04:03:46;2.28;;;1.77;;
48823;SDS011;34640;53.590;10.054;2023-11-19T04:06:22;2.85;;;1.77;;
48823;SDS011;34640;53.590;10.054;2023-11-19T04:08:54;2.75;;;1.90;;
48823;SDS011;34640;53.590;10.054;2023-11-19T04:11:30;2.50;;;2.05;;
48823;SDS011;34640;53.590;10.054;2023-11-19T04:14:04;3.58;;;1.95;;
48823;SDS011;34640;53.590;10.054;2023-11-19T04:16:38;2.95;;;2.00;;
48823;SDS011;34640;53.590;10.054;2023-11-19T04:19:11;2.92;;;2.60;;
48823;SDS011;34640;53.590;10.054;2023-11-19T04:21:44;2.67;;;2.42;;
48823;SDS011;34640;53.590;10.054;2023-11-19T04:24:17;3.47;;;2.40;;
48823;SDS011;34640;53.590;10.054;2023-11-19T04:26:50;3.05;;;2.40;;
48823;SDS011;34640;53.590;10.054;2023-11-19T04:29:23;2.97;;;2.50;;
48823;SDS011;34640;53.590;10.054;2023-11-19T04:31:58;3.40;;;2.60;;
48823;SDS011;34640;53.590;10.054;2023-11-19T04:34:32;2.72;;;2.38;;
48823;SDS011;34640;53.590;10.054;2023-11-19T04:37:05;3.33;;;2.17;;
48823;SDS011;34640;53.590;10.054;2023-11-19T04:39:41;3.35;;;2.55;;
48823;SDS011;34640;53.590;10.054;2023-11-19T04:42:16;3.83;;;3.20;;
48823;SDS011;34640;53.590;10.054;2023-11-19T04:44:49;4.53;;;3.63;;
48823;SDS011;34640;53.590;10.054;2023-11-19T04:47:23;3.95;;;3.33;;
48823;SDS011;34640;53.590;10.054;2023-11-19T04:49:57;5.90;;;4.15;;
48823;SDS011;34640;53.590;10.054;2023-11-19T04:52:30;6.18;;;4.15;;
48823;SDS011;34640;53.590;10.054;2023-11-19T04:55:03;6.00;;;4.05;;
48823;SDS011;34640;53.590;10.054;2023-11-19T04:57:37;6.07;;;4.68;;
48823;SDS011;34640;53.590;10.054;2023-11-19T05:00:10;7.65;;;4.90;;
48823;SDS011;34640;53.590;10.054;2023-11-19T05:02:49;8.68;;;5.70;;
48823;SDS011;34640;53.590;10.054;2023-11-19T05:05:24;8.77;;;5.78;;
48823;SDS011;34640;53.590;10.054;2023-11-19T05:07:57;8.60;;;5.22;;
48823;SDS011;34640;53.590;10.054;2023-11-19T05:10:30;8.75;;;5.90;;
48823;SDS011;34640;53.590;10.054;2023-11-19T05:13:03;9.18;;;5.82;;
48823;SDS011;34640;53.590;10.054;2023-11-19T05:15:36;10.02;;;6.20;;
48823;SDS011;34640;53.590;10.054;2023-11-19T05:18:11;11.20;;;5.95;;
48823;SDS011;34640;53.590;10.054;2023-11-19T05:20:44;12.15;;;7.28;;
48823;SDS011;34640;53.590;10.054;2023-11-19T05:23:18;11.10;;;6.97;;
48823;SDS011;34640;53.590;10.054;2023-11-19T05:25:52;11.82;;;6.55;;
48823;SDS011;34640;53.590;10.054;2023-11-19T05:28:25;9.77;;;6.53;;
48823;SDS011;34640;53.590;10.054;2023-11-19T05:30:58;15.05;;;7.40;;
48823;SDS011;34640;53.590;10.054;2023-11-19T05:33:32;9.93;;;6.13;;
48823;SDS011;34640;53.590;10.054;2023-11-19T05:36:05;11.13;;;7.30;;
48823;SDS011;34640;53.590;10.054;2023-11-19T05:38:39;12.02;;;7.40;;
48823;SDS011;34640;53.590;10.054;2023-11-19T05:41:13;16.08;;;7.38;;
48823;SDS011;34640;53.590;10.054;2023-11-19T05:43:46;17.27;;;7.82;;
48823;SDS011;34640;53.590;10.054;2023-11-19T05:46:19;14.88;;;7.70;;
48823;SDS011;34640;53.590;10.054;2023-11-19T05:48:54;12.20;;;7.68;;
48823;SDS011;34640;53.590;10.054;2023-11-19T05:51:26;16.67;;;7.82;;
48823;SDS011;34640;53.590;10.054;2023-11-19T05:53:59;15.18;;;7.45;;
48823;SDS011;34640;53.590;10.054;2023-11-19T05:56:33;14.13;;;8.13;;
48823;SDS011;34640;53.590;10.054;2023-11-19T05:59:06;14.20;;;7.78;;
48823;SDS011;34640;53.590;10.054;2023-11-19T06:01:46;19.05;;;8.40;;
48823;SDS011;34640;53.590;10.054;2023-11-19T06:04:21;17.02;;;8.38;;
48823;SDS011;34640;53.590;10.054;2023-11-19T06:06:54;17.25;;;8.05;;
48823;SDS011;34640;53.590;10.054;2023-11-19T06:09:27;25.45;;;8.65;;
48823;SDS011;34640;53.590;10.054;2023-11-19T06:12:00;17.13;;;8.38;;
48823;SDS011;34640;53.590;10.054;2023-11-19T06:14:35;20.17;;;9.23;;
48823;SDS011;34640;53.590;10.054;2023-11-19T06:17:08;14.27;;;8.52;;
48823;SDS011;34640;53.590;10.054;2023-11-19T06:19:44;18.75;;;9.23;;
48823;SDS011;34640;53.590;10.054;2023-11-19T06:22:17;21.50;;;9.00;;
48823;SDS011;34640;53.590;10.054;2023-11-19T06:24:50;16.90;;;8.50;;
48823;SDS011;34640;53.590;10.054;2023-11-19T06:27:23;26.17;;;9.77;;
48823;SDS011;34640;53.590;10.054;2023-11-19T06:29:57;35.08;;;11.80;;
48823;SDS011;34640;53.590;10.054;2023-11-19T06:32:30;29.85;;;12.63;;
48823;SDS011;34640;53.590;10.054;2023-11-19T06:35:05;31.63;;;12.48;;
48823;SDS011;34640;53.590;10.054;2023-11-19T06:37:39;28.08;;;12.52;;
48823;SDS011;34640;53.590;10.054;2023-11-19T06:40:13;39.05;;;14.13;;
48823;SDS011;34640;53.590;10.054;2023-11-19T06:42:47;31.00;;;11.05;;
48823;SDS011;34640;53.590;10.054;2023-11-19T06:45:20;32.33;;;10.77;;
48823;SDS011;34640;53.590;10.054;2023-11-19T06:47:54;30.88;;;10.18;;
48823;SDS011;34640;53.590;10.054;2023-11-19T06:50:28;30.02;;;10.73;;
48823;SDS011;34640;53.590;10.054;2023-11-19T06:53:01;32.70;;;9.90;;
48823;SDS011;34640;53.590;10.054;2023-11-19T06:55:34;30.10;;;8.77;;
48823;SDS011;34640;53.590;10.054;2023-11-19T06:58:07;21.50;;;9.05;;
48823;SDS011;34640;53.590;10.054;2023-11-19T07:00:40;28.52;;;9.00;;
48823;SDS011;34640;53.590;10.054;2023-11-19T07:03:13;23.67;;;7.78;;
48823;SDS011;34640;53.590;10.054;2023-11-19T07:05:48;36.85;;;9.30;;
48823;SDS011;34640;53.590;10.054;2023-11-19T07:08:21;28.33;;;7.63;;
48823;SDS011;34640;53.590;10.054;2023-11-19T07:10:54;36.63;;;8.70;;
48823;SDS011;34640;53.590;10.054;2023-11-19T07:13:27;26.17;;;6.85;;
48823;SDS011;34640;53.590;10.054;2023-11-19T07:16:00;24.35;;;6.22;;
48823;SDS011;34640;53.590;10.054;2023-11-19T07:18:34;41.17;;;7.25;;
48823;SDS011;34640;53.590;10.054;2023-11-19T07:21:08;27.30;;;6.90;;
48823;SDS011;34640;53.590;10.054;2023-11-19T07:23:41;28.55;;;6.28;;
48823;SDS011;34640;53.590;10.054;2023-11-19T07:26:15;26.27;;;6.30;;
48823;SDS011;34640;53.590;10.054;2023-11-19T07:28:48;24.83;;;5.63;;
48823;SDS011;34640;53.590;10.054;2023-11-19T07:31:22;35.20;;;6.22;;
48823;SDS011;34640;53.590;10.054;2023-11-19T07:33:56;21.92;;;4.63;;
48823;SDS011;34640;53.590;10.054;2023-11-19T07:36:31;32.00;;;4.93;;
48823;SDS011;34640;53.590;10.054;2023-11-19T07:39:04;26.98;;;4.68;;
48823;SDS011;34640;53.590;10.054;2023-11-19T07:41:38;23.90;;;4.43;;
48823;SDS011;34640;53.590;10.054;2023-11-19T07:44:11;24.40;;;3.83;;
48823;SDS011;34640;53.590;10.054;2023-11-19T07:46:44;26.30;;;4.82;;
48823;SDS011;34640;53.590;10.054;2023-11-19T07:49:17;19.10;;;3.45;;
48823;SDS011;34640;53.590;10.054;2023-11-19T07:51:52;22.52;;;3.85;;
48823;SDS011;34640;53.590;10.054;2023-11-19T07:54:25;31.45;;;4.90;;
48823;SDS011;34640;53.590;10.054;2023-11-19T07:56:58;29.52;;;4.20;;
48823;SDS011;34640;53.590;10.054;2023-11-19T07:59:32;30.23;;;6.93;;
48823;SDS011;34640;53.590;10.054;2023-11-19T08:02:05;24.20;;;4.25;;
48823;SDS011;34640;53.590;10.054;2023-11-19T08:04:38;23.95;;;3.53;;
48823;SDS011;34640;53.590;10.054;2023-11-19T08:07:18;17.67;;;4.73;;
48823;SDS011;34640;53.590;10.054;2023-11-19T08:09:51;35.90;;;5.25;;
48823;SDS011;34640;53.590;10.054;2023-11-19T08:12:24;23.83;;;4.40;;
48823;SDS011;34640;53.590;10.054;2023-11-19T08:14:57;30.08;;;6.15;;
48823;SDS011;34640;53.590;10.054;2023-11-19T08:17:30;35.95;;;5.10;;
48823;SDS011;34640;53.590;10.054;2023-11-19T08:20:04;34.95;;;5.20;;
48823;SDS011;34640;53.590;10.054;2023-11-19T08:22:43;31.33;;;4.60;;
48823;SDS011;34640;53.590;10.054;2023-11-19T08:25:16;38.08;;;4.13;;
48823;SDS011;34640;53.590;10.054;2023-11-19T08:27:49;32.53;;;4.05;;
48823;SDS011;34640;53.590;10.054;2023-11-19T08:30:22;32.45;;;5.13;;
48823;SDS011;34640;53.590;10.054;2023-11-19T08:32:55;32.30;;;5.60;;
48823;SDS011;34640;53.590;10.054;2023-11-19T08:35:28;32.70;;;5.05;;
48823;SDS011;34640;53.590;10.054;2023-11-19T08:38:03;37.42;;;6.32;;
48823;SDS011;34640;53.590;10.054;2023-11-19T08:40:36;33.55;;;5.00;;
48823;SDS011;34640;53.590;10.054;2023-11-19T08:43:10;33.53;;;5.80;;
48823;SDS011;34640;53.590;10.054;2023-11-19T08:45:44;31.55;;;4.15;;
48823;SDS011;34640;53.590;10.054;2023-11-19T08:48:18;32.20;;;4.13;;
48823;SDS011;34640;53.590;10.054;2023-11-19T08:50:53;30.02;;;4.50;;
48823;SDS011;34640;53.590;10.054;2023-11-19T08:53:28;24.98;;;4.43;;
48823;SDS011;34640;53.590;10.054;2023-11-19T08:56:02;37.60;;;5.15;;
48823;SDS011;34640;53.590;10.054;2023-11-19T08:58:36;32.70;;;4.68;;
48823;SDS011;34640;53.590;10.054;2023-11-19T09:01:09;35.10;;;4.57;;
48823;SDS011;34640;53.590;10.054;2023-11-19T09:03:42;38.53;;;4.80;;
48823;SDS011;34640;53.590;10.054;2023-11-19T09:06:15;33.05;;;5.60;;
48823;SDS011;34640;53.590;10.054;2023-11-19T09:08:50;45.33;;;5.25;;
48823;SDS011;34640;53.590;10.054;2023-11-19T09:11:23;45.13;;;4.22;;
48823;SDS011;34640;53.590;10.054;2023-11-19T09:13:56;29.38;;;4.28;;
48823;SDS011;34640;53.590;10.054;2023-11-19T09:16:29;30.10;;;4.60;;
48823;SDS011;34640;53.590;10.054;2023-11-19T09:19:04;30.05;;;4.70;;
48823;SDS011;34640;53.590;10.054;2023-11-19T09:21:37;44.55;;;5.80;;
48823;SDS011;34640;53.590;10.054;2023-11-19T09:24:12;35.65;;;5.43;;
48823;SDS011;34640;53.590;10.054;2023-11-19T09:26:47;34.63;;;5.07;;
48823;SDS011;34640;53.590;10.054;2023-11-19T09:29:20;42.55;;;6.50;;
48823;SDS011;34640;53.590;10.054;2023-11-19T09:31:53;30.40;;;4.53;;
48823;SDS011;34640;53.590;10.054;2023-11-19T09:34:27;34.03;;;4.25;;
48823;SDS011;34640;53.590;10.054;2023-11-19T09:37:00;36.22;;;6.00;;
48823;SDS011;34640;53.590;10.054;2023-11-19T09:39:35;35.85;;;4.35;;
48823;SDS011;34640;53.590;10.054;2023-11-19T09:42:09;45.33;;;5.95;;
48823;SDS011;34640;53.590;10.054;2023-11-19T09:44:47;36.92;;;4.82;;
48823;SDS011;34640;53.590;10.054;2023-11-19T09:47:21;33.80;;;4.38;;
48823;SDS011;34640;53.590;10.054;2023-11-19T09:49:55;38.58;;;4.70;;
48823;SDS011;34640;53.590;10.054;2023-11-19T09:52:30;36.58;;;5.68;;
48823;SDS011;34640;53.590;10.054;2023-11-19T09:55:06;34.28;;;4.88;;
48823;SDS011;34640;53.590;10.054;2023-11-19T09:57:46;39.75;;;4.13;;
48823;SDS011;34640;53.590;10.054;2023-11-19T10:00:21;34.42;;;4.15;;
48823;SDS011;34640;53.590;10.054;2023-11-19T10:02:55;36.22;;;4.97;;
48823;SDS011;34640;53.590;10.054;2023-11-19T10:05:31;40.03;;;6.32;;
48823;SDS011;34640;53.590;10.054;2023-11-19T10:08:04;44.35;;;5.18;;
48823;SDS011;34640;53.590;10.054;2023-11-19T10:10:39;41.92;;;5.05;;
48823;SDS011;34640;53.590;10.054;2023-11-19T10:15:49;34.22;;;4.07;;
48823;SDS011;34640;53.590;10.054;2023-11-19T10:18:23;36.63;;;5.03;;
48823;SDS011;34640;53.590;10.054;2023-11-19T10:20:56;42.50;;;5.38;;
48823;SDS011;34640;53.590;10.054;2023-11-19T10:23:31;31.15;;;4.72;;
48823;SDS011;34640;53.590;10.054;2023-11-19T10:26:06;41.45;;;4.40;;
48823;SDS011;34640;53.590;10.054;2023-11-19T10:28:40;38.05;;;4.68;;
48823;SDS011;34640;53.590;10.054;2023-11-19T10:31:15;45.80;;;6.32;;
48823;SDS011;34640;53.590;10.054;2023-11-19T10:33:50;32.65;;;5.30;;
48823;SDS011;34640;53.590;10.054;2023-11-19T10:36:36;46.85;;;6.78;;
48823;SDS011;34640;53.590;10.054;2023-11-19T10:39:10;35.65;;;5.75;;
48823;SDS011;34640;53.590;10.054;2023-11-19T10:41:45;38.80;;;4.60;;
48823;SDS011;34640;53.590;10.054;2023-11-19T10:44:31;47.92;;;5.95;;
48823;SDS011;34640;53.590;10.054;2023-11-19T10:47:07;39.42;;;5.85;;
48823;SDS011;34640;53.590;10.054;2023-11-19T10:49:41;42.67;;;5.28;;
48823;SDS011;34640;53.590;10.054;2023-11-19T10:52:16;33.50;;;4.60;;
48823;SDS011;34640;53.590;10.054;2023-11-19T10:54:50;39.28;;;4.47;;
48823;SDS011;34640;53.590;10.054;2023-11-19T10:57:25;37.72;;;5.60;;
48823;SDS011;34640;53.590;10.054;2023-11-19T11:00:05;37.88;;;5.03;;
48823;SDS011;34640;53.590;10.054;2023-11-19T11:02:44;35.55;;;4.72;;
48823;SDS011;34640;53.590;10.054;2023-11-19T11:05:18;44.38;;;5.15;;
48823;SDS011;34640;53.590;10.054;2023-11-19T11:07:55;40.33;;;6.00;;
48823;SDS011;34640;53.590;10.054;2023-11-19T11:10:29;43.63;;;4.72;;
48823;SDS011;34640;53.590;10.054;2023-11-19T11:13:08;35.70;;;5.50;;
48823;SDS011;34640;53.590;10.054;2023-11-19T11:15:43;37.55;;;5.47;;
48823;SDS011;34640;53.590;10.054;2023-11-19T11:18:18;39.00;;;5.68;;
48823;SDS011;34640;53.590;10.054;2023-11-19T11:20:51;35.17;;;5.95;;
48823;SDS011;34640;53.590;10.054;2023-11-19T11:23:42;35.10;;;4.85;;
48823;SDS011;34640;53.590;10.054;2023-11-19T11:26:33;37.53;;;6.45;;
48823;SDS011;34640;53.590;10.054;2023-11-19T11:29:24;35.90;;;4.70;;
48823;SDS011;34640;53.590;10.054;2023-11-19T11:32:06;39.30;;;5.25;;
48823;SDS011;34640;53.590;10.054;2023-11-19T11:34:58;37.65;;;4.97;;
48823;SDS011;34640;53.590;10.054;2023-11-19T11:37:43;32.70;;;4.20;;
48823;SDS011;34640;53.590;10.054;2023-11-19T11:40:19;37.90;;;4.80;;
48823;SDS011;34640;53.590;10.054;2023-11-19T11:42:54;40.25;;;6.53;;
48823;SDS011;34640;53.590;10.054;2023-11-19T11:45:36;45.03;;;5.15;;
48823;SDS011;34640;53.590;10.054;2023-11-19T11:48:17;34.10;;;4.43;;
48823;SDS011;34640;53.590;10.054;2023-11-19T11:50:53;41.83;;;5.30;;
48823;SDS011;34640;53.590;10.054;2023-11-19T11:53:29;42.20;;;5.25;;
48823;SDS011;34640;53.590;10.054;2023-11-19T11:56:04;30.92;;;5.13;;
48823;SDS011;34640;53.590;10.054;2023-11-19T11:58:40;39.72;;;5.43;;
48823;SDS011;34640;53.590;10.054;2023-11-19T12:01:18;44.20;;;6.18;;
48823;SDS011;34640;53.590;10.054;2023-11-19T12:03:55;42.20;;;4.90;;
48823;SDS011;34640;53.590;10.054;2023-11-19T12:06:28;32.08;;;4.60;;
48823;SDS011;34640;53.590;10.054;2023-11-19T12:09:01;38.60;;;5.40;;
48823;SDS011;34640;53.590;10.054;2023-11-19T12:11:35;40.70;;;4.93;;
48823;SDS011;34640;53.590;10.054;2023-11-19T12:14:09;37.80;;;5.10;;
48823;SDS011;34640;53.590;10.054;2023-11-19T12:16:43;44.75;;;5.13;;
48823;SDS011;34640;53.590;10.054;2023-11-19T12:19:17;33.20;;;5.97;;
48823;SDS011;34640;53.590;10.054;2023-11-19T12:21:51;43.97;;;5.03;;
48823;SDS011;34640;53.590;10.054;2023-11-19T12:24:25;31.73;;;4.13;;
48823;SDS011;34640;53.590;10.054;2023-11-19T12:26:58;38.90;;;4.75;;
48823;SDS011;34640;53.590;10.054;2023-11-19T12:29:41;46.17;;;4.70;;
48823;SDS011;34640;53.590;10.054;2023-11-19T12:32:17;44.22;;;5.50;;
48823;SDS011;34640;53.590;10.054;2023-11-19T12:34:50;42.63;;;4.47;;
48823;SDS011;34640;53.590;10.054;2023-11-19T12:37:23;45.60;;;4.95;;
48823;SDS011;34640;53.590;10.054;2023-11-19T12:39:56;37.78;;;5.68;;
48823;SDS011;34640;53.590;10.054;2023-11-19T12:42:35;31.90;;;4.78;;
48823;SDS011;34640;53.590;10.054;2023-11-19T12:45:10;30.65;;;3.53;;
48823;SDS011;34640;53.590;10.054;2023-11-19T12:47:46;29.55;;;4.28;;
48823;SDS011;34640;53.590;10.054;2023-11-19T12:50:21;35.08;;;4.05;;
48823;SDS011;34640;53.590;10.054;2023-11-19T12:52:57;33.45;;;5.47;;
48823;SDS011;34640;53.590;10.054;2023-11-19T12:55:30;35.33;;;5.60;;
48823;SDS011;34640;53.590;10.054;2023-11-19T12:58:04;32.90;;;4.85;;
48823;SDS011;34640;53.590;10.054;2023-11-19T13:00:37;41.70;;;4.95;;
48823;SDS011;34640;53.590;10.054;2023-11-19T13:03:11;29.83;;;4.60;;
48823;SDS011;34640;53.590;10.054;2023-11-19T13:05:45;34.13;;;5.57;;
48823;SDS011;34640;53.590;10.054;2023-11-19T13:08:17;38.90;;;6.20;;
48823;SDS011;34640;53.590;10.054;2023-11-19T13:10:51;30.23;;;4.93;;
48823;SDS011;34640;53.590;10.054;2023-11-19T13:13:25;40.58;;;5.80;;
48823;SDS011;34640;53.590;10.054;2023-11-19T13:16:02;26.95;;;4.45;;
48823;SDS011;34640;53.590;10.054;2023-11-19T13:18:38;33.78;;;5.72;;
48823;SDS011;34640;53.590;10.054;2023-11-19T13:21:14;50.38;;;5.05;;
48823;SDS011;34640;53.590;10.054;2023-11-19T13:23:47;38.53;;;5.63;;
48823;SDS011;34640;53.590;10.054;2023-11-19T13:26:20;34.22;;;4.03;;
48823;SDS011;34640;53.590;10.054;2023-11-19T13:28:53;28.65;;;3.92;;
48823;SDS011;34640;53.590;10.054;2023-11-19T13:31:25;41.30;;;4.78;;
48823;SDS011;34640;53.590;10.054;2023-11-19T13:34:00;32.08;;;4.20;;
48823;SDS011;34640;53.590;10.054;2023-11-19T13:36:35;39.92;;;4.90;;
48823;SDS011;34640;53.590;10.054;2023-11-19T13:39:08;35.53;;;5.25;;
48823;SDS011;34640;53.590;10.054;2023-11-19T13:41:43;36.85;;;4.30;;
48823;SDS011;34640;53.590;10.054;2023-11-19T13:44:16;32.90;;;5.68;;
48823;SDS011;34640;53.590;10.054;2023-11-19T13:46:50;41.72;;;5.53;;
48823;SDS011;34640;53.590;10.054;2023-11-19T13:49:25;38.42;;;6.57;;
48823;SDS011;34640;53.590;10.054;2023-11-19T13:51:59;30.20;;;5.00;;
48823;SDS011;34640;53.590;10.054;2023-11-19T13:54:32;35.20;;;5.75;;
48823;SDS011;34640;53.590;10.054;2023-11-19T13:57:05;38.00;;;5.10;;
48823;SDS011;34640;53.590;10.054;2023-11-19T13:59:41;40.35;;;4.93;;
48823;SDS011;34640;53.590;10.054;2023-11-19T14:02:14;42.72;;;5.15;;
48823;SDS011;34640;53.590;10.054;2023-11-19T14:04:48;39.92;;;5.18;;
48823;SDS011;34640;53.590;10.054;2023-11-19T14:07:21;42.72;;;5.50;;
48823;SDS011;34640;53.590;10.054;2023-11-19T14:09:54;35.55;;;4.55;;
48823;SDS011;34640;53.590;10.054;2023-11-19T14:12:28;39.10;;;4.93;;
48823;SDS011;34640;53.590;10.054;2023-11-19T14:15:02;38.95;;;5.25;;
48823;SDS011;34640;53.590;10.054;2023-11-19T14:17:37;40.75;;;4.35;;
48823;SDS011;34640;53.590;10.054;2023-11-19T14:20:11;44.88;;;5.95;;
48823;SDS011;34640;53.590;10.054;2023-11-19T14:22:45;34.42;;;7.28;;
48823;SDS011;34640;53.590;10.054;2023-11-19T14:25:20;35.45;;;5.13;;
48823;SDS011;34640;53.590;10.054;2023-11-19T14:27:54;39.53;;;6.07;;
48823;SDS011;34640;53.590;10.054;2023-11-19T14:30:27;31.13;;;5.78;;
48823;SDS011;34640;53.590;10.054;2023-11-19T14:33:01;37.90;;;5.00;;
48823;SDS011;34640;53.590;10.054;2023-11-19T14:35:36;37.50;;;4.03;;
48823;SDS011;34640;53.590;10.054;2023-11-19T14:38:09;35.20;;;4.85;;
48823;SDS011;34640;53.590;10.054;2023-11-19T14:40:43;37.72;;;5.10;;
48823;SDS011;34640;53.590;10.054;2023-11-19T14:43:16;66.30;;;21.15;;
48823;SDS011;34640;53.590;10.054;2023-11-19T14:45:49;39.70;;;11.50;;
48823;SDS011;34640;53.590;10.054;2023-11-19T14:48:22;38.22;;;7.80;;
48823;SDS011;34640;53.590;10.054;2023-11-19T14:50:56;27.33;;;4.47;;
48823;SDS011;34640;53.590;10.054;2023-11-19T14:53:29;37.67;;;6.03;;
48823;SDS011;34640;53.590;10.054;2023-11-19T14:56:02;41.60;;;7.55;;
48823;SDS011;34640;53.590;10.054;2023-11-19T14:58:36;32.97;;;4.97;;
48823;SDS011;34640;53.590;10.054;2023-11-19T15:01:11;36.38;;;4.82;;
48823;SDS011;34640;53.590;10.054;2023-11-19T15:03:44;36.22;;;5.15;;
48823;SDS011;34640;53.590;10.054;2023-11-19T15:06:24;34.58;;;4.90;;
48823;SDS011;34640;53.590;10.054;2023-11-19T15:08:58;19.93;;;3.50;;
48823;SDS011;34640;53.590;10.054;2023-11-19T15:11:31;23.58;;;3.58;;